createdAt,value
2023-02-14T00:00:25.724Z,100454.75
2023-02-14T00:04:27.787Z,100449.16
2023-02-14T00:08:29.964Z,100448.34
2023-02-14T00:12:32.243Z,100445.63
2023-02-14T00:16:34.349Z,100426.78
2023-02-14T00:20:37.072Z,100424.34
2023-02-14T00:24:39.637Z,100426.25
2023-02-14T00:28:41.680Z,100437.25
2023-02-14T00:32:43.774Z,100434.25
2023-02-14T00:36:46.283Z,100431.00
2023-02-14T00:40:51.119Z,100431.78
2023-02-14T00:44:55.396Z,100430.16
2023-02-14T00:48:57.556Z,100440.19
2023-02-14T00:52:59.540Z,100440.69
2023-02-14T00:57:01.968Z,100441.47
2023-02-14T01:01:04.423Z,100432.84
2023-02-14T01:05:06.555Z,100434.03
2023-02-14T01:09:08.806Z,100429.41
2023-02-14T01:13:11.161Z,100418.00
2023-02-14T01:17:13.325Z,100421.16
2023-02-14T01:21:15.748Z,100421.19
2023-02-14T01:25:18.294Z,100419.09
2023-02-14T01:29:21.125Z,100415.69
2023-02-14T01:33:23.077Z,100409.03
2023-02-14T01:37:25.060Z,100416.28
2023-02-14T01:41:28.330Z,100410.56
2023-02-14T01:45:32.088Z,100400.09
2023-02-14T01:49:36.065Z,100399.94
2023-02-14T01:53:38.449Z,100389.00
2023-02-14T01:57:44.041Z,100397.78
2023-02-14T02:01:47.151Z,100390.03
2023-02-14T02:05:51.719Z,100392.66
2023-02-14T02:09:53.694Z,100386.28
2023-02-14T02:13:58.660Z,100382.28
2023-02-14T02:18:24.105Z,100383.81
2023-02-14T02:22:36.045Z,100388.66
2023-02-14T02:26:56.810Z,100389.94
2023-02-14T02:31:11.208Z,100385.94
2023-02-14T02:35:31.912Z,100391.66
2023-02-14T02:39:46.403Z,100395.78
2023-02-14T02:44:11.465Z,100390.56
2023-02-14T02:48:21.174Z,100389.53
2023-02-14T02:52:46.758Z,100385.16
2023-02-14T02:56:55.990Z,100390.41
2023-02-14T03:00:59.963Z,100387.28
2023-02-14T03:05:05.658Z,100383.38
2023-02-14T03:09:30.708Z,100386.91
2023-02-14T03:13:51.336Z,100383.16
2023-02-14T03:18:49.542Z,100382.19
2023-02-14T03:23:00.822Z,100383.03
2023-02-14T03:27:06.298Z,100383.75
2023-02-14T03:31:11.232Z,100380.19
2023-02-14T03:35:13.617Z,100382.09
2023-02-14T03:39:19.503Z,100372.44
2023-02-14T03:43:30.994Z,100373.00
2023-02-14T03:47:34.605Z,100378.72
2023-02-14T03:51:38.169Z,100377.47
2023-02-14T03:55:46.204Z,100379.13
2023-02-14T03:59:48.919Z,100378.84
2023-02-14T04:03:52.716Z,100370.03
2023-02-14T04:07:58.643Z,100385.72
2023-02-14T04:12:01.165Z,100378.97
2023-02-14T04:16:03.474Z,100376.25
2023-02-14T04:20:05.813Z,100370.91
2023-02-14T04:24:07.956Z,100387.28
2023-02-14T04:28:10.496Z,100379.94
2023-02-14T04:32:14.262Z,100385.13
2023-02-14T04:36:16.245Z,100381.56
2023-02-14T04:40:18.316Z,100386.22
2023-02-14T04:44:20.555Z,100390.75
2023-02-14T04:48:22.651Z,100391.84
2023-02-14T04:52:24.617Z,100380.53
2023-02-14T04:56:27.342Z,100384.13
2023-02-14T05:00:29.438Z,100384.38
2023-02-14T05:04:31.670Z,100391.53
2023-02-14T05:08:33.600Z,100382.38
2023-02-14T05:12:35.522Z,100375.78
2023-02-14T05:16:38.592Z,100377.00
2023-02-14T05:20:40.677Z,100383.06
2023-02-14T05:24:42.620Z,100382.22
2023-02-14T05:28:44.619Z,100382.38
2023-02-14T05:32:46.844Z,100381.00
2023-02-14T05:36:48.855Z,100389.94
2023-02-14T05:40:50.804Z,100387.22
2023-02-14T05:44:52.836Z,100398.19
2023-02-14T05:48:54.879Z,100396.41
2023-02-14T05:52:56.940Z,100388.28
2023-02-14T05:56:58.892Z,100382.94
2023-02-14T06:01:01.413Z,100383.06
2023-02-14T06:05:03.716Z,100386.09
2023-02-14T06:09:05.696Z,100396.41
2023-02-14T06:13:10.854Z,100400.28
2023-02-14T06:17:12.773Z,100391.31
2023-02-14T06:21:23.903Z,100393.78
2023-02-14T06:25:25.972Z,100396.25
2023-02-14T06:29:30.415Z,100397.38
2023-02-14T06:33:50.885Z,100389.97
2023-02-14T06:37:54.460Z,100397.50
2023-02-14T06:41:56.406Z,100406.97
2023-02-14T06:45:58.742Z,100401.75
2023-02-14T06:50:01.643Z,100404.13
2023-02-14T06:54:03.665Z,100401.38
2023-02-14T06:58:05.677Z,100394.47
2023-02-14T07:02:09.640Z,100396.63
2023-02-14T07:06:12.028Z,100393.03
2023-02-14T07:10:14.133Z,100400.84
2023-02-14T07:14:16.225Z,100407.22
2023-02-14T07:18:18.149Z,100397.03
2023-02-14T07:22:20.112Z,100398.06
2023-02-14T07:26:22.357Z,100388.47
2023-02-14T07:30:25.193Z,100382.47
2023-02-14T07:34:27.455Z,100381.94
2023-02-14T07:38:30.616Z,100380.97
2023-02-14T07:42:32.583Z,100380.53
2023-02-14T07:46:35.481Z,100374.44
2023-02-14T07:50:37.650Z,100380.44
2023-02-14T07:54:39.742Z,100386.66
2023-02-14T07:58:41.769Z,100370.09
2023-02-14T08:02:44.162Z,100381.78
2023-02-14T08:06:46.435Z,100379.88
2023-02-14T08:10:48.439Z,100372.28
2023-02-14T08:14:50.374Z,100371.22
2023-02-14T08:18:52.297Z,100375.38
2023-02-14T08:22:54.376Z,100372.31
2023-02-14T08:26:56.468Z,100381.19
2023-02-14T08:30:59.168Z,100380.41
2023-02-14T08:35:01.417Z,100374.50
2023-02-14T08:39:04.924Z,100373.34
2023-02-14T08:43:07.560Z,100374.66
2023-02-14T08:47:10.033Z,100369.69
2023-02-14T08:51:14.065Z,100369.97
2023-02-14T08:55:16.019Z,100362.00
2023-02-14T08:59:17.991Z,100361.78
2023-02-14T09:03:20.201Z,100362.84
2023-02-14T09:07:22.279Z,100354.00
2023-02-14T09:11:25.149Z,100355.91
2023-02-14T09:15:27.103Z,100352.56
2023-02-14T09:19:29.128Z,100348.97
2023-02-14T09:23:31.225Z,100346.38
2023-02-14T09:27:33.265Z,100348.69
2023-02-14T09:31:35.341Z,100336.69
2023-02-14T09:35:56.177Z,100325.28
2023-02-14T09:39:58.200Z,100319.44
2023-02-14T09:44:11.133Z,100319.09
2023-02-14T09:48:21.740Z,100311.50
2023-02-14T09:52:26.397Z,100310.75
2023-02-14T09:56:45.975Z,100305.78
2023-02-14T10:01:15.857Z,100306.31
2023-02-14T10:05:22.146Z,100306.03
2023-02-14T10:09:30.271Z,100310.59
2023-02-14T10:13:35.227Z,100303.81
2023-02-14T10:17:42.168Z,100299.50
2023-02-14T10:21:48.039Z,100280.59
2023-02-14T10:26:01.314Z,100285.53
2023-02-14T10:30:12.320Z,100270.28
2023-02-14T10:34:32.839Z,100268.28
2023-02-14T10:38:42.073Z,100273.00
2023-02-14T10:42:59.529Z,100254.78
2023-02-14T10:47:01.513Z,100242.66
2023-02-14T10:51:09.993Z,100232.19
2023-02-14T10:55:32.357Z,100228.63
2023-02-14T10:59:57.089Z,100229.94
2023-02-14T11:04:04.243Z,100216.34
2023-02-14T11:08:22.332Z,100211.38
2023-02-14T11:12:40.939Z,100199.44
2023-02-14T11:16:43.010Z,100203.22
2023-02-14T11:20:58.987Z,100191.75
2023-02-14T11:25:17.964Z,100181.34
2023-02-14T11:29:31.061Z,100180.91
2023-02-14T11:33:43.147Z,100172.25
2023-02-14T11:37:55.606Z,100163.97
2023-02-14T11:41:59.589Z,100159.59
2023-02-14T11:46:20.261Z,100155.41
2023-02-14T11:50:25.170Z,100153.38
2023-02-14T11:54:30.157Z,100151.47
2023-02-14T11:58:38.650Z,100147.59
2023-02-14T12:02:42.382Z,100139.81
2023-02-14T12:06:46.052Z,100133.34
2023-02-14T12:11:00.812Z,100126.97
2023-02-14T12:15:23.203Z,100129.00
2023-02-14T12:19:37.756Z,100108.53
2023-02-14T12:23:49.064Z,100102.84
2023-02-14T12:27:54.281Z,100093.31
2023-02-14T12:31:59.327Z,100089.59
2023-02-14T12:36:01.790Z,100078.59
2023-02-14T12:40:13.117Z,100064.50
2023-02-14T12:44:21.194Z,100061.91
2023-02-14T12:48:35.542Z,100051.53
2023-02-14T12:52:51.459Z,100048.00
2023-02-14T12:57:08.627Z,100042.75
2023-02-14T13:01:38.502Z,100032.69
2023-02-14T13:05:53.924Z,100028.34
2023-02-14T13:10:06.685Z,100020.75
2023-02-14T13:14:26.463Z,100009.13
2023-02-14T13:18:28.780Z,100009.97
2023-02-14T13:22:32.098Z,100007.41
2023-02-14T13:26:39.144Z,100010.94
2023-02-14T13:30:43.355Z,99994.88
2023-02-14T13:34:47.229Z,99992.22
2023-02-14T13:38:51.784Z,99987.22
2023-02-14T13:42:53.921Z,99982.78
2023-02-14T13:46:56.286Z,99976.63
2023-02-14T13:51:00.156Z,99982.28
2023-02-14T13:55:03.578Z,99965.53
2023-02-14T13:59:06.627Z,99970.50
2023-02-14T14:03:15.159Z,99964.34
2023-02-14T14:07:22.428Z,99961.06
2023-02-14T14:11:25.153Z,99955.34
2023-02-14T14:15:27.878Z,99944.69
2023-02-14T14:19:30.266Z,99947.84
2023-02-14T14:23:35.041Z,99946.31
2023-02-14T14:27:46.757Z,99942.56
2023-02-14T14:31:55.881Z,99944.81
2023-02-14T14:36:06.071Z,99943.75
2023-02-14T14:40:23.018Z,99937.84
2023-02-14T14:44:25.868Z,99937.63
2023-02-14T14:48:55.384Z,99932.25
2023-02-14T14:53:02.085Z,99929.53
2023-02-14T14:57:07.531Z,99934.69
2023-02-14T15:01:21.556Z,99929.09
2023-02-14T15:05:33.399Z,99926.97
2023-02-14T15:09:35.588Z,99923.22
2023-02-14T15:13:50.207Z,99920.81
2023-02-14T15:17:52.684Z,99909.59
2023-02-14T15:21:56.150Z,99912.75
2023-02-14T15:26:00.121Z,99913.47
2023-02-14T15:30:09.568Z,99909.19
2023-02-14T15:34:13.811Z,99900.41
2023-02-14T15:38:17.583Z,99904.16
2023-02-14T15:42:29.566Z,99899.28
2023-02-14T15:46:38.266Z,99902.22
2023-02-14T15:51:01.051Z,99905.41
2023-02-14T15:55:11.802Z,99903.97
2023-02-14T15:59:17.748Z,99902.84
2023-02-14T16:03:21.260Z,99904.97
2023-02-14T16:07:24.319Z,99903.22
2023-02-14T16:11:29.144Z,99904.72
2023-02-14T16:15:37.429Z,99911.19
2023-02-14T16:19:45.049Z,99907.44
2023-02-14T16:23:48.275Z,99908.16
2023-02-14T16:27:51.495Z,99910.41
2023-02-14T16:36:23.702Z,99912.28
2023-02-14T16:40:27.960Z,99919.09
2023-02-14T16:44:30.333Z,99926.66
2023-02-14T16:48:32.491Z,99927.44
2023-02-14T16:52:34.965Z,99927.97
2023-02-14T16:56:39.384Z,99938.59
2023-02-14T17:00:42.281Z,99940.97
2023-02-14T17:04:44.961Z,99940.03
2023-02-14T17:08:48.405Z,99950.31
2023-02-14T17:12:51.844Z,99954.66
2023-02-14T17:16:55.305Z,99954.69
2023-02-14T17:20:59.438Z,99954.84
2023-02-14T17:25:03.381Z,99952.19
2023-02-14T17:29:06.972Z,99953.38
2023-02-14T17:33:09.098Z,99964.78
2023-02-14T17:37:11.143Z,99962.47
2023-02-14T17:41:14.821Z,99957.19
2023-02-14T17:45:17.083Z,99964.97
2023-02-14T17:49:19.102Z,99967.03
2023-02-14T17:53:21.225Z,99975.34
2023-02-14T17:57:23.723Z,99973.16
2023-02-14T18:01:27.477Z,99970.94
2023-02-14T18:05:29.601Z,99978.50
2023-02-14T18:09:31.801Z,99980.75
2023-02-14T18:13:34.103Z,99978.91
2023-02-14T18:17:36.189Z,99986.44
2023-02-14T18:21:40.182Z,99988.28
2023-02-14T18:25:48.811Z,99986.00
2023-02-14T18:29:51.071Z,99988.84
2023-02-14T18:33:53.800Z,99989.81
2023-02-14T18:37:56.043Z,99990.38
2023-02-14T18:42:00.087Z,99995.66
2023-02-14T18:46:06.469Z,99987.47
2023-02-14T18:50:08.884Z,99992.72
2023-02-14T18:54:11.123Z,100001.31
2023-02-14T18:58:13.643Z,99990.53
2023-02-14T19:02:15.932Z,99998.63
2023-02-14T19:06:18.383Z,99994.44
2023-02-14T19:10:20.679Z,99998.16
2023-02-14T19:14:22.732Z,99996.19
2023-02-14T19:18:25.820Z,99993.06
2023-02-14T19:22:28.115Z,99993.09
2023-02-14T19:26:35.091Z,99988.63
2023-02-14T19:30:37.827Z,99989.25
2023-02-14T19:34:40.104Z,99988.84
2023-02-14T19:38:43.391Z,99991.72
2023-02-14T19:42:45.822Z,99989.47
2023-02-14T19:46:47.915Z,100000.09
2023-02-14T19:50:50.788Z,99999.53
2023-02-14T19:54:53.037Z,99999.56
2023-02-14T19:58:56.281Z,99999.13
2023-02-14T20:03:02.284Z,100004.03
2023-02-14T20:07:05.564Z,99997.88
2023-02-14T20:11:07.900Z,100006.84
2023-02-14T20:15:11.110Z,100002.78
2023-02-14T20:19:16.908Z,100006.38
2023-02-14T20:23:19.849Z,100018.34
2023-02-14T20:27:23.117Z,100019.94
2023-02-14T20:31:25.456Z,100023.69
2023-02-14T20:35:27.962Z,100024.66
2023-02-14T20:39:34.862Z,100034.50
2023-02-14T20:43:37.669Z,100028.59
2023-02-14T20:47:40.360Z,100016.03
2023-02-14T20:51:42.745Z,100021.75
2023-02-14T20:55:47.607Z,100019.44
2023-02-14T20:59:49.750Z,100022.13
2023-02-14T21:04:42.453Z,100016.03
2023-02-14T21:08:23.286Z,100018.22
2023-02-14T21:12:25.473Z,100020.25
2023-02-14T21:16:28.941Z,100020.63
2023-02-14T21:20:31.607Z,100016.41
2023-02-14T21:24:33.872Z,100021.13
2023-02-14T21:28:36.305Z,100009.72
2023-02-14T21:32:38.406Z,100012.53
2023-02-14T21:36:40.590Z,100010.81
2023-02-14T21:40:42.871Z,100007.59
2023-02-14T21:45:05.146Z,100013.06
2023-02-14T21:49:25.982Z,100007.19
2023-02-14T21:53:28.689Z,100011.94
2023-02-14T21:57:31.515Z,100004.38
2023-02-14T22:01:35.187Z,100003.44
2023-02-14T22:05:37.468Z,100007.13
2023-02-14T22:09:39.711Z,100004.06
2023-02-14T22:13:42.301Z,100001.56
2023-02-14T22:17:44.490Z,100004.34
2023-02-14T22:21:46.916Z,99998.28
2023-02-14T22:25:49.076Z,100004.19
2023-02-14T22:29:51.209Z,100006.19
2023-02-14T22:33:53.929Z,100006.00
2023-02-14T22:37:56.327Z,100008.59
2023-02-14T22:41:58.507Z,100004.81
2023-02-14T22:46:08.340Z,100003.06
2023-02-14T22:50:10.969Z,100004.34
2023-02-14T22:54:14.455Z,100002.25
2023-02-14T22:58:16.814Z,100005.00
2023-02-14T23:02:18.898Z,100006.97
2023-02-14T23:06:21.016Z,99999.72
2023-02-14T23:10:23.242Z,99998.41
2023-02-14T23:14:44.976Z,99998.09
2023-02-14T23:19:05.930Z,100000.09
2023-02-14T23:23:08.278Z,99994.06
2023-02-14T23:27:12.410Z,99994.38
2023-02-14T23:31:14.639Z,99998.66
2023-02-14T23:35:17.005Z,99989.16
2023-02-14T23:39:19.195Z,99997.75
2023-02-14T23:43:21.682Z,99985.59
2023-02-14T23:47:23.820Z,99970.38
2023-02-14T23:51:25.943Z,99972.00
2023-02-14T23:55:28.119Z,99968.22
2023-02-14T23:59:30.618Z,99965.13
